»·PEaware :: N62GD KMRY-KLAX

N62GD :: KMRY-KLAX

FLIGHT INFORMATION

Flight Status: Arrived
Operator: Privately registered:
United States
More flights under this callsign
Pilot: Andrew S. (20703)
Aircraft: PILATUS PC-12 EAGLE
(PC12)
More flights by this aircraft type
Origin: KMRY Monterey Peninsula
United States
Destination: KLAX Los Angeles Intl
United States
More flights between these airports :: More routes between these airports
Route: + TTE WAYVE1
File this flight plan on PilotEdge
Remarks:
Altitude:
(Current/Filed)
25,000ft
Speed:
(Current/Filed)
268kts
Departed: 14-Dec-18 08:15 PM
Arrived: 14-Dec-18 09:31 PM
Distance/Time
Traveled:
232nm/1:16
Distance/Time
To Go:
Arrived

Flight Plot

Page will automatically refresh every two minutes.

Flight plan parsing failed; only flown route is shown


Map Options




Map Legend


Flown Route
Filed Route
Departure Airport
Arrival Airport
Navaid (VOR, NDB)
Fix

Horizontal Profiles

Position Reports

Time Latitude Longitude Heading Altitude Ground
Speed
14-Dec-18 19:56 36.589205 -121.858411 306 259ft 0kts
14-Dec-18 19:57 36.589205 -121.858411 306 259ft 0kts
14-Dec-18 19:58 36.589205 -121.858411 306 259ft 0kts
14-Dec-18 19:59 36.589205 -121.858411 306 259ft 0kts
14-Dec-18 20:00 36.589205 -121.858411 306 259ft 0kts
14-Dec-18 20:01 36.589205 -121.858411 306 259ft 0kts
14-Dec-18 20:02 36.589205 -121.858411 306 259ft 0kts
14-Dec-18 20:03 36.589205 -121.858411 306 259ft 0kts
14-Dec-18 20:04 36.589205 -121.858411 306 259ft 0kts
14-Dec-18 20:05 36.589205 -121.858411 306 259ft 0kts
14-Dec-18 20:06 36.589205 -121.858411 306 259ft 0kts
14-Dec-18 20:07 36.589205 -121.858411 306 259ft 0kts
14-Dec-18 20:08 36.589205 -121.858411 306 259ft 0kts
14-Dec-18 20:09 36.589205 -121.858411 306 259ft 0kts
14-Dec-18 20:10 36.589341 -121.858365 63 259ft 6kts
14-Dec-18 20:11 36.589687 -121.855550 318 259ft 0kts
14-Dec-18 20:12 36.589687 -121.855550 318 259ft 0kts
14-Dec-18 20:13 36.590491 -121.855913 33 259ft 14kts
14-Dec-18 20:14 36.583469 -121.835199 104 904ft 118kts
14-Dec-18 20:15 36.608831 -121.827679 341 3436ft 133kts
14-Dec-18 20:16 36.644540 -121.844711 2 5941ft 143kts
14-Dec-18 20:17 36.672704 -121.817485 88 8302ft 155kts
14-Dec-18 20:18 36.645446 -121.778851 140 10708ft 153kts
14-Dec-18 20:19 36.619112 -121.738482 134 12835ft 155kts
14-Dec-18 20:20 36.593904 -121.693703 131 14764ft 163kts
14-Dec-18 20:21 36.580867 -121.637331 109 16605ft 178kts
14-Dec-18 20:22 36.566647 -121.577637 111 18377ft 184kts
14-Dec-18 20:23 36.551669 -121.516143 110 20061ft 191kts
14-Dec-18 20:24 36.536031 -121.452057 110 21673ft 198kts
14-Dec-18 20:25 36.519781 -121.385613 109 23218ft 204kts
14-Dec-18 20:26 36.503427 -121.317632 109 24658ft 210kts
14-Dec-18 20:27 36.484942 -121.242490 108 25179ft 255kts
14-Dec-18 20:28 36.462692 -121.152078 109 25177ft 287kts
14-Dec-18 20:29 36.438853 -121.055560 111 25184ft 297kts
14-Dec-18 20:30 36.414391 -120.957169 113 25191ft 297kts
14-Dec-18 20:31 36.389920 -120.859651 113 25193ft 295kts
14-Dec-18 20:32 36.365596 -120.762581 113 25194ft 295kts
14-Dec-18 20:33 36.341085 -120.665143 113 25195ft 295kts
14-Dec-18 20:34 36.316674 -120.568438 113 25198ft 293kts
14-Dec-18 20:35 36.292297 -120.472236 113 25201ft 292kts
14-Dec-18 20:36 36.267885 -120.376298 113 25201ft 292kts
14-Dec-18 20:37 36.243667 -120.281430 114 25196ft 291kts
14-Dec-18 20:38 36.219189 -120.185920 114 25197ft 291kts
14-Dec-18 20:39 36.194525 -120.090063 114 25198ft 293kts
14-Dec-18 20:40 36.169722 -119.994005 114 25199ft 294kts
14-Dec-18 20:41 36.144739 -119.897578 114 25199ft 294kts
14-Dec-18 20:42 36.119713 -119.801394 114 25199ft 294kts
14-Dec-18 20:43 36.094589 -119.705168 114 25200ft 294kts
14-Dec-18 20:44 36.069373 -119.608951 113 25200ft 294kts
14-Dec-18 20:45 36.044117 -119.512892 114 25201ft 294kts
14-Dec-18 20:46 36.018735 -119.416752 114 25201ft 294kts
14-Dec-18 20:47 35.993368 -119.321006 114 25195ft 294kts
14-Dec-18 20:48 35.967916 -119.225320 114 25194ft 293kts
14-Dec-18 20:49 35.942390 -119.129687 114 25195ft 293kts
14-Dec-18 20:50 35.915502 -119.035652 134 25189ft 282kts
14-Dec-18 20:51 35.851034 -118.998392 169 25203ft 258kts
14-Dec-18 20:52 35.782529 -118.972812 171 25201ft 258kts
14-Dec-18 20:53 35.713657 -118.947646 171 25198ft 258kts
14-Dec-18 20:54 35.644825 -118.922565 171 25198ft 258kts
14-Dec-18 20:55 35.576267 -118.897623 171 25200ft 258kts
14-Dec-18 20:56 35.507643 -118.872706 171 25202ft 257kts
14-Dec-18 20:57 35.438930 -118.847673 171 25201ft 257kts
14-Dec-18 20:58 35.370553 -118.822809 172 25201ft 259kts
14-Dec-18 20:59 35.301214 -118.797642 172 25201ft 261kts
14-Dec-18 21:00 35.231709 -118.772475 172 25205ft 261kts
14-Dec-18 21:01 35.162336 -118.747509 172 25216ft 261kts
14-Dec-18 21:02 35.092723 -118.722770 172 25233ft 260kts
14-Dec-18 21:03 35.023418 -118.698175 172 25245ft 260kts
14-Dec-18 21:04 34.953992 -118.673443 171 25245ft 261kts
14-Dec-18 21:05 34.884600 -118.648726 171 25251ft 262kts
14-Dec-18 21:06 34.814680 -118.623733 171 25254ft 263kts
14-Dec-18 21:07 34.743418 -118.598298 170 24561ft 274kts
14-Dec-18 21:08 34.670564 -118.569629 161 23638ft 282kts
14-Dec-18 21:09 34.599911 -118.528090 161 22464ft 281kts
14-Dec-18 21:10 34.535459 -118.490355 161 20560ft 244kts
14-Dec-18 21:11 34.475827 -118.455551 160 18707ft 234kts
14-Dec-18 21:12 34.417458 -118.421521 159 16911ft 239kts
14-Dec-18 21:13 34.356630 -118.386720 159 14986ft 246kts
14-Dec-18 21:14 34.295028 -118.351601 158 13052ft 245kts
14-Dec-18 21:15 34.235617 -118.317800 158 11186ft 238kts
14-Dec-18 21:16 34.177832 -118.282480 154 9322ft 229kts
14-Dec-18 21:17 34.124544 -118.248142 152 7521ft 209kts
14-Dec-18 21:18 34.074467 -118.215847 150 5781ft 203kts
14-Dec-18 21:19 34.024132 -118.183144 151 4114ft 207kts
14-Dec-18 21:20 33.976874 -118.152495 151 3987ft 170kts
14-Dec-18 21:21 33.938647 -118.127379 151 3990ft 146kts
14-Dec-18 21:22 33.907363 -118.133947 251 3705ft 149kts
14-Dec-18 21:23 33.919273 -118.185153 291 2787ft 174kts
14-Dec-18 21:24 33.937501 -118.241309 291 1752ft 183kts
14-Dec-18 21:25 33.945643 -118.281079 272 1511ft 82kts
14-Dec-18 21:27 33.942747 -118.310724 263 1436ft 92kts
14-Dec-18 21:28 33.941047 -118.342523 265 953ft 97kts
14-Dec-18 21:29 33.938427 -118.370767 266 368ft 81kts
14-Dec-18 21:30 33.936088 -118.395089 263 129ft 53kts
14-Dec-18 21:31 33.935934 -118.407289 254 129ft 0kts

Navigation Log

Ident Type
Flight plan parsing failed, navigation log unavailable